createdAt,value
2023-03-07T00:01:30.995Z,2.40
2023-03-07T00:03:58.817Z,2.40
2023-03-07T00:06:26.212Z,2.40
2023-03-07T00:08:55.138Z,2.30
2023-03-07T00:11:21.783Z,2.30
2023-03-07T00:13:49.027Z,2.30
2023-03-07T00:16:18.505Z,2.30
2023-03-07T00:18:45.483Z,2.20
2023-03-07T00:21:15.504Z,2.20
2023-03-07T00:23:43.801Z,2.20
2023-03-07T00:26:20.029Z,2.20
2023-03-07T00:28:48.105Z,2.10
2023-03-07T00:31:14.909Z,2.10
2023-03-07T00:33:41.904Z,2.10
2023-03-07T00:36:15.189Z,2.10
2023-03-07T00:38:42.475Z,2.10
2023-03-07T00:41:18.208Z,2.10
2023-03-07T00:43:46.993Z,2.10
2023-03-07T00:46:18.638Z,2.00
2023-03-07T00:48:45.826Z,2.00
2023-03-07T00:51:15.261Z,1.90
2023-03-07T00:53:42.281Z,1.90
2023-03-07T00:56:14.633Z,1.90
2023-03-07T00:58:41.399Z,1.90
2023-03-07T01:01:09.859Z,1.90
2023-03-07T01:03:37.578Z,1.90
2023-03-07T01:06:10.298Z,1.90
2023-03-07T01:08:36.934Z,1.90
2023-03-07T01:11:06.216Z,1.90
2023-03-07T01:13:34.377Z,1.90
2023-03-07T01:16:29.034Z,1.90
2023-03-07T01:18:57.970Z,1.90
2023-03-07T01:21:29.124Z,1.90
2023-03-07T01:23:56.140Z,1.90
2023-03-07T01:26:25.255Z,1.90
2023-03-07T01:28:54.558Z,1.80
2023-03-07T01:31:21.879Z,1.80
2023-03-07T01:33:49.886Z,1.80
2023-03-07T01:36:30.067Z,1.90
2023-03-07T01:39:04.588Z,1.80
2023-03-07T01:41:32.394Z,1.90
2023-03-07T01:44:00.442Z,1.90
2023-03-07T01:46:46.506Z,1.90
2023-03-07T01:49:36.244Z,1.90
2023-03-07T01:52:08.905Z,1.90
2023-03-07T01:54:40.613Z,1.90
2023-03-07T01:57:07.856Z,1.90
2023-03-07T01:59:40.565Z,1.80
2023-03-07T02:02:14.362Z,1.90
2023-03-07T02:04:52.468Z,1.80
2023-03-07T02:07:23.425Z,1.80
2023-03-07T02:09:51.821Z,1.80
2023-03-07T02:12:18.460Z,1.80
2023-03-07T02:14:47.433Z,1.80
2023-03-07T02:17:14.280Z,1.80
2023-03-07T02:19:52.710Z,1.80
2023-03-07T02:22:19.727Z,1.80
2023-03-07T02:25:09.507Z,1.80
2023-03-07T02:27:37.874Z,1.70
2023-03-07T02:30:06.176Z,1.70
2023-03-07T02:32:32.834Z,1.70
2023-03-07T02:34:59.638Z,1.70
2023-03-07T02:37:32.840Z,1.70
2023-03-07T02:40:07.969Z,1.70
2023-03-07T02:42:38.901Z,1.70
2023-03-07T02:45:12.496Z,1.70
2023-03-07T02:47:39.243Z,1.70
2023-03-07T02:50:06.297Z,1.70
2023-03-07T02:52:33.045Z,1.70
2023-03-07T02:54:59.890Z,1.70
2023-03-07T02:57:26.818Z,1.80
2023-03-07T02:59:53.472Z,1.80
2023-03-07T03:02:20.104Z,1.80
2023-03-07T03:04:46.939Z,1.80
2023-03-07T03:07:13.715Z,1.80
2023-03-07T03:09:40.330Z,1.80
2023-03-07T03:12:07.399Z,1.80
2023-03-07T03:14:34.017Z,1.90
2023-03-07T03:17:00.768Z,1.90
2023-03-07T03:19:29.683Z,1.90
2023-03-07T03:21:57.936Z,1.90
2023-03-07T03:24:24.571Z,1.90
2023-03-07T03:26:51.306Z,1.90
2023-03-07T03:29:17.930Z,1.90
2023-03-07T03:31:45.068Z,1.90
2023-03-07T03:34:11.720Z,1.90
2023-03-07T03:36:38.310Z,1.90
2023-03-07T03:39:10.868Z,1.90
2023-03-07T03:41:38.144Z,1.90
2023-03-07T03:44:04.837Z,1.90
2023-03-07T03:46:31.608Z,1.90
2023-03-07T03:48:58.179Z,1.90
2023-03-07T03:51:25.158Z,1.90
2023-03-07T03:53:51.892Z,1.90
2023-03-07T03:56:21.056Z,1.90
2023-03-07T03:58:50.148Z,2.00
2023-03-07T04:01:17.754Z,1.90
2023-03-07T04:03:49.398Z,2.00
2023-03-07T04:06:25.017Z,1.90
2023-03-07T04:08:52.616Z,2.00
2023-03-07T04:11:22.166Z,2.00
2023-03-07T04:13:49.475Z,2.00
2023-03-07T04:16:17.027Z,2.00
2023-03-07T04:18:43.958Z,2.00
2023-03-07T04:21:13.780Z,2.00
2023-03-07T04:23:40.438Z,2.10
2023-03-07T04:26:09.167Z,2.10
2023-03-07T04:28:43.193Z,2.10
2023-03-07T04:31:14.780Z,2.10
2023-03-07T04:33:41.927Z,2.10
2023-03-07T04:36:08.932Z,2.10
2023-03-07T04:38:38.068Z,2.20
2023-03-07T04:41:06.024Z,2.20
2023-03-07T04:43:32.694Z,2.20
2023-03-07T04:45:59.644Z,2.20
2023-03-07T04:48:26.311Z,2.20
2023-03-07T04:50:53.230Z,2.20
2023-03-07T04:53:20.293Z,2.30
2023-03-07T04:55:47.017Z,2.30
2023-03-07T04:58:14.661Z,2.30
2023-03-07T05:00:43.144Z,2.30
2023-03-07T05:03:11.578Z,2.30
2023-03-07T05:05:38.729Z,2.30
2023-03-07T05:08:05.694Z,2.30
2023-03-07T05:10:33.700Z,2.30
2023-03-07T05:13:00.618Z,2.30
2023-03-07T05:15:27.588Z,2.30
2023-03-07T05:17:54.209Z,2.30
2023-03-07T05:20:23.589Z,2.40
2023-03-07T05:22:50.586Z,2.40
2023-03-07T05:25:17.599Z,2.40
2023-03-07T05:27:44.466Z,2.40
2023-03-07T05:30:12.308Z,2.40
2023-03-07T05:32:38.985Z,2.40
2023-03-07T05:35:06.650Z,2.40
2023-03-07T05:37:33.435Z,2.40
2023-03-07T05:40:00.222Z,2.40
2023-03-07T05:42:26.815Z,2.50
2023-03-07T05:44:53.398Z,2.50
2023-03-07T05:47:20.053Z,2.50
2023-03-07T05:49:46.789Z,2.50
2023-03-07T05:52:13.518Z,2.50
2023-03-07T05:54:40.146Z,2.50
2023-03-07T05:57:06.907Z,2.50
2023-03-07T05:59:33.639Z,2.50
2023-03-07T06:02:00.202Z,2.50
2023-03-07T06:04:27.020Z,2.50
2023-03-07T06:06:53.778Z,2.50
2023-03-07T06:09:22.276Z,2.50
2023-03-07T06:11:49.075Z,2.50
2023-03-07T06:14:15.633Z,2.50
2023-03-07T06:16:42.398Z,2.50
2023-03-07T06:19:09.090Z,2.50
2023-03-07T06:21:35.740Z,2.50
2023-03-07T06:24:02.327Z,2.50
2023-03-07T06:26:29.021Z,2.60
2023-03-07T06:28:55.607Z,2.50
2023-03-07T06:31:22.325Z,2.50
2023-03-07T06:33:49.248Z,2.50
2023-03-07T06:36:17.985Z,2.50
2023-03-07T06:38:45.001Z,2.50
2023-03-07T06:41:11.834Z,2.50
2023-03-07T06:43:38.562Z,2.50
2023-03-07T06:46:05.465Z,2.60
2023-03-07T06:48:34.708Z,2.60
2023-03-07T06:51:07.483Z,2.60
2023-03-07T06:53:34.283Z,2.60
2023-03-07T06:56:00.972Z,2.60
2023-03-07T06:58:27.742Z,2.60
2023-03-07T07:00:54.453Z,2.60
2023-03-07T07:03:21.432Z,2.60
2023-03-07T07:05:48.196Z,2.60
2023-03-07T07:08:15.089Z,2.60
2023-03-07T07:10:41.710Z,2.60
2023-03-07T07:13:08.622Z,2.70
2023-03-07T07:15:35.266Z,2.70
2023-03-07T07:18:01.921Z,2.70
2023-03-07T07:20:28.835Z,2.70
2023-03-07T07:22:55.556Z,2.80
2023-03-07T07:25:22.221Z,2.80
2023-03-07T07:27:48.907Z,2.70
2023-03-07T07:30:15.851Z,2.80
2023-03-07T07:32:44.831Z,2.90
2023-03-07T07:35:11.792Z,2.90
2023-03-07T07:37:38.626Z,2.90
2023-03-07T07:40:06.647Z,3.00
2023-03-07T07:42:33.362Z,2.90
2023-03-07T07:44:59.975Z,2.90
2023-03-07T07:47:26.650Z,2.90
2023-03-07T07:49:53.425Z,2.90
2023-03-07T07:52:20.085Z,2.90
2023-03-07T07:54:46.842Z,2.90
2023-03-07T07:57:13.433Z,2.90
2023-03-07T07:59:40.153Z,2.90
2023-03-07T08:02:07.229Z,3.00
2023-03-07T08:04:35.558Z,2.90
2023-03-07T08:07:02.239Z,2.90
2023-03-07T08:09:28.858Z,3.00
2023-03-07T08:11:55.566Z,3.00
2023-03-07T08:14:22.225Z,3.00
2023-03-07T08:16:48.877Z,3.10
2023-03-07T08:19:15.584Z,3.10
2023-03-07T08:21:42.188Z,3.10
2023-03-07T08:24:08.815Z,3.10
2023-03-07T08:26:35.492Z,3.10
2023-03-07T08:29:02.135Z,3.20
2023-03-07T08:31:28.969Z,3.20
2023-03-07T08:33:55.594Z,3.30
2023-03-07T08:36:22.429Z,3.30
2023-03-07T08:38:51.739Z,3.30
2023-03-07T08:41:20.695Z,3.40
2023-03-07T08:43:47.815Z,3.50
2023-03-07T08:46:14.796Z,3.60
2023-03-07T08:48:41.696Z,3.60
2023-03-07T08:51:12.223Z,3.70
2023-03-07T08:53:39.193Z,3.70
2023-03-07T08:56:07.565Z,3.70
2023-03-07T08:58:34.480Z,3.60
2023-03-07T09:01:01.420Z,3.70
2023-03-07T09:03:28.003Z,3.80
2023-03-07T09:05:54.689Z,3.80
2023-03-07T09:08:21.284Z,3.80
2023-03-07T09:10:48.499Z,3.90
2023-03-07T09:13:16.989Z,3.90
2023-03-07T09:15:45.033Z,4.00
2023-03-07T09:18:11.779Z,4.00
2023-03-07T09:20:38.951Z,4.00
2023-03-07T09:23:06.394Z,4.00
2023-03-07T09:25:33.176Z,4.10
2023-03-07T09:27:59.985Z,4.10
2023-03-07T09:30:28.338Z,4.20
2023-03-07T09:32:55.805Z,4.30
2023-03-07T09:35:22.836Z,4.40
2023-03-07T09:37:49.720Z,4.50
2023-03-07T09:40:20.331Z,4.50
2023-03-07T09:43:10.357Z,4.50
2023-03-07T09:45:54.921Z,4.60
2023-03-07T09:48:46.014Z,4.70
2023-03-07T09:51:31.371Z,4.80
2023-03-07T09:54:09.926Z,4.80
2023-03-07T09:56:58.153Z,4.80
2023-03-07T09:59:33.886Z,4.90
2023-03-07T10:02:29.251Z,4.90
2023-03-07T10:05:12.344Z,4.90
2023-03-07T10:07:39.786Z,5.00
2023-03-07T10:10:13.616Z,5.00
2023-03-07T10:12:40.179Z,5.00
2023-03-07T10:15:09.726Z,5.00
2023-03-07T10:18:13.744Z,4.90
2023-03-07T10:21:02.892Z,4.90
2023-03-07T10:23:41.747Z,5.00
2023-03-07T10:26:17.983Z,5.00
2023-03-07T10:28:46.501Z,5.10
2023-03-07T10:31:24.141Z,5.20
2023-03-07T10:33:53.246Z,5.20
2023-03-07T10:36:22.880Z,5.20
2023-03-07T10:39:04.315Z,5.30
2023-03-07T10:41:31.141Z,5.30
2023-03-07T10:43:58.174Z,5.40
2023-03-07T10:46:30.296Z,5.40
2023-03-07T10:49:23.837Z,5.40
2023-03-07T10:52:01.831Z,5.40
2023-03-07T10:54:31.452Z,5.40
2023-03-07T10:57:12.834Z,5.60
2023-03-07T10:59:43.522Z,5.70
2023-03-07T11:02:30.549Z,5.80
2023-03-07T11:04:57.724Z,5.90
2023-03-07T11:07:28.557Z,5.90
2023-03-07T11:09:57.205Z,5.90
2023-03-07T11:12:26.410Z,6.00
2023-03-07T11:15:08.713Z,6.00
2023-03-07T11:17:46.734Z,5.90
2023-03-07T11:20:30.465Z,5.90
2023-03-07T11:23:16.775Z,5.90
2023-03-07T11:25:44.101Z,5.80
2023-03-07T11:28:35.241Z,5.80
2023-03-07T11:31:29.082Z,5.70
2023-03-07T11:34:08.713Z,5.80
2023-03-07T11:36:38.218Z,5.80
2023-03-07T11:39:31.735Z,5.80
2023-03-07T11:42:15.375Z,5.80
2023-03-07T11:44:53.985Z,5.90
2023-03-07T11:47:46.907Z,5.90
2023-03-07T11:50:21.795Z,5.90
2023-03-07T11:53:19.549Z,6.00
2023-03-07T11:56:13.278Z,6.00
2023-03-07T11:58:53.581Z,6.00
2023-03-07T12:01:30.140Z,6.00
2023-03-07T12:04:12.021Z,6.00
2023-03-07T12:07:06.566Z,6.00
2023-03-07T12:10:02.111Z,6.00
2023-03-07T12:12:43.531Z,6.00
2023-03-07T12:15:54.519Z,6.00
2023-03-07T12:18:43.926Z,6.10
2023-03-07T12:21:32.431Z,6.10
2023-03-07T12:24:06.821Z,6.10
2023-03-07T12:27:00.451Z,6.10
2023-03-07T12:29:44.351Z,6.20
2023-03-07T12:32:33.138Z,6.20
2023-03-07T12:35:28.260Z,6.10
2023-03-07T12:38:23.938Z,6.10
2023-03-07T12:41:03.836Z,6.10
2023-03-07T12:43:38.840Z,6.00
2023-03-07T12:46:37.315Z,5.90
2023-03-07T12:49:20.921Z,5.90
2023-03-07T12:51:56.096Z,5.90
2023-03-07T12:54:29.402Z,6.00
2023-03-07T12:57:14.803Z,6.00
2023-03-07T12:59:44.239Z,6.00
2023-03-07T13:02:23.071Z,6.10
2023-03-07T13:04:49.789Z,6.10
2023-03-07T13:07:21.590Z,6.10
2023-03-07T13:09:50.666Z,6.20
2023-03-07T13:12:20.060Z,6.10
2023-03-07T13:14:47.717Z,6.10
2023-03-07T13:17:38.073Z,6.10
2023-03-07T13:20:19.478Z,6.10
2023-03-07T13:22:46.019Z,6.20
2023-03-07T13:25:36.560Z,6.20
2023-03-07T13:28:06.251Z,6.20
2023-03-07T13:30:33.370Z,6.20
2023-03-07T13:33:03.695Z,6.20
2023-03-07T13:35:33.562Z,6.10
2023-03-07T13:38:15.284Z,6.10
2023-03-07T13:40:46.227Z,6.10
2023-03-07T13:43:19.330Z,6.10
2023-03-07T13:46:06.160Z,6.10
2023-03-07T13:48:32.697Z,6.10
2023-03-07T13:50:59.313Z,6.10
2023-03-07T13:53:30.068Z,6.10
2023-03-07T13:56:14.167Z,6.20
2023-03-07T13:58:51.652Z,6.20
2023-03-07T14:01:22.557Z,6.20
2023-03-07T14:03:54.360Z,6.20
2023-03-07T14:06:27.278Z,6.30
2023-03-07T14:08:55.105Z,6.30
2023-03-07T14:11:54.237Z,6.40
2023-03-07T14:14:49.570Z,6.40
2023-03-07T14:17:21.689Z,6.40
2023-03-07T14:19:51.231Z,6.40
2023-03-07T14:22:38.208Z,6.40
2023-03-07T14:25:21.740Z,6.40
2023-03-07T14:27:58.001Z,6.40
2023-03-07T14:30:28.131Z,6.30
2023-03-07T14:32:54.784Z,6.20
2023-03-07T14:35:34.818Z,6.10
2023-03-07T14:38:01.762Z,6.10
2023-03-07T14:40:58.870Z,6.10
2023-03-07T14:43:38.621Z,6.10
2023-03-07T14:46:17.002Z,6.10
2023-03-07T14:49:04.717Z,6.00
2023-03-07T14:51:32.803Z,6.00
2023-03-07T14:54:07.128Z,6.00
2023-03-07T14:56:34.077Z,5.90
2023-03-07T14:59:04.657Z,5.90
2023-03-07T15:01:36.657Z,6.00
2023-03-07T15:04:08.362Z,6.00
2023-03-07T15:06:45.071Z,6.00
2023-03-07T15:09:12.206Z,6.00
2023-03-07T15:11:43.610Z,6.00
2023-03-07T15:14:27.508Z,6.10
2023-03-07T15:16:58.830Z,6.10
2023-03-07T15:19:48.730Z,6.20
2023-03-07T15:22:39.585Z,6.20
2023-03-07T15:25:16.745Z,6.30
2023-03-07T15:27:43.533Z,6.30
2023-03-07T15:30:24.967Z,6.30
2023-03-07T15:33:15.679Z,6.40
2023-03-07T15:35:43.926Z,6.30
2023-03-07T15:38:15.387Z,6.30
2023-03-07T15:40:42.866Z,6.20
2023-03-07T15:43:23.412Z,6.20
2023-03-07T15:46:06.439Z,6.20
2023-03-07T15:48:35.862Z,6.20
2023-03-07T15:51:06.377Z,6.20
2023-03-07T15:53:41.729Z,6.20
2023-03-07T15:56:30.306Z,6.40
2023-03-07T15:59:02.562Z,6.30
2023-03-07T16:01:29.586Z,6.30
2023-03-07T16:03:58.271Z,6.30
2023-03-07T16:06:46.927Z,6.30
2023-03-07T16:09:16.147Z,6.20
2023-03-07T16:11:44.112Z,6.20
2023-03-07T16:14:22.625Z,6.20
2023-03-07T16:16:49.694Z,6.10
2023-03-07T16:19:16.404Z,6.10
2023-03-07T16:21:43.260Z,6.10
2023-03-07T16:24:09.900Z,6.10
2023-03-07T16:26:36.705Z,6.00
2023-03-07T16:29:04.253Z,5.90
2023-03-07T16:31:30.986Z,5.90
2023-03-07T16:33:57.884Z,5.90
2023-03-07T16:36:24.467Z,5.90
2023-03-07T16:38:51.124Z,5.80
2023-03-07T16:41:22.056Z,5.80
2023-03-07T16:43:57.716Z,5.80
2023-03-07T16:46:25.875Z,5.80
2023-03-07T16:48:52.533Z,5.70
2023-03-07T16:51:21.960Z,5.70
2023-03-07T16:53:50.514Z,5.80
2023-03-07T16:56:35.406Z,5.70
2023-03-07T16:59:02.502Z,5.70
2023-03-07T17:01:29.299Z,5.70
2023-03-07T17:03:58.732Z,5.70
2023-03-07T17:06:37.129Z,5.70
2023-03-07T17:09:06.153Z,5.70
2023-03-07T17:11:33.532Z,5.60
2023-03-07T17:14:04.385Z,5.60
2023-03-07T17:16:44.658Z,5.60
2023-03-07T17:19:38.022Z,5.60
2023-03-07T17:22:04.759Z,5.60
2023-03-07T17:24:31.504Z,5.60
2023-03-07T17:27:00.296Z,5.60
2023-03-07T17:29:33.270Z,5.60
2023-03-07T17:32:00.178Z,5.60
2023-03-07T17:34:29.501Z,5.60
2023-03-07T17:36:57.598Z,5.60
2023-03-07T17:39:24.944Z,5.50
2023-03-07T17:41:51.689Z,5.50
2023-03-07T17:44:18.426Z,5.50
2023-03-07T17:46:45.125Z,5.50
2023-03-07T17:49:11.992Z,5.50
2023-03-07T17:51:39.014Z,5.50
2023-03-07T17:54:08.810Z,5.50
2023-03-07T17:56:36.954Z,5.50
2023-03-07T17:59:05.102Z,5.50
2023-03-07T18:01:33.743Z,5.50
2023-03-07T18:04:01.179Z,5.40
2023-03-07T18:06:29.514Z,5.40
2023-03-07T18:08:56.285Z,5.40
2023-03-07T18:11:22.871Z,5.40
2023-03-07T18:13:49.542Z,5.30
2023-03-07T18:16:16.176Z,5.30
2023-03-07T18:18:57.751Z,5.40
2023-03-07T18:21:26.392Z,5.30
2023-03-07T18:23:53.308Z,5.30
2023-03-07T18:26:21.418Z,5.30
2023-03-07T18:28:49.966Z,5.30
2023-03-07T18:31:28.654Z,5.40
2023-03-07T18:33:56.143Z,5.30
2023-03-07T18:36:24.928Z,5.40
2023-03-07T18:38:51.775Z,5.40
2023-03-07T18:41:21.315Z,5.30
2023-03-07T18:43:48.080Z,5.30
2023-03-07T18:46:17.394Z,5.30
2023-03-07T18:48:44.187Z,5.30
2023-03-07T18:51:13.194Z,5.40
2023-03-07T18:53:40.015Z,5.40
2023-03-07T18:56:12.378Z,5.40
2023-03-07T18:58:39.675Z,5.40
2023-03-07T19:01:21.008Z,5.40
2023-03-07T19:03:49.775Z,5.40
2023-03-07T19:06:19.091Z,5.40
2023-03-07T19:08:45.941Z,5.40
2023-03-07T19:11:14.323Z,5.20
2023-03-07T19:13:41.429Z,5.20
2023-03-07T19:16:17.879Z,5.10
2023-03-07T19:18:45.690Z,5.00
2023-03-07T19:21:15.046Z,5.00
2023-03-07T19:23:42.312Z,5.00
2023-03-07T19:26:12.596Z,4.90
2023-03-07T19:28:40.154Z,4.90
2023-03-07T19:31:09.265Z,4.90
2023-03-07T19:33:37.641Z,4.90
2023-03-07T19:36:12.635Z,4.80
2023-03-07T19:38:39.709Z,4.70
2023-03-07T19:41:11.828Z,4.60
2023-03-07T19:43:38.595Z,4.40
2023-03-07T19:46:07.437Z,4.30
2023-03-07T19:48:34.247Z,4.10
2023-03-07T19:51:01.573Z,3.90
2023-03-07T19:53:28.714Z,3.80
2023-03-07T19:55:55.403Z,3.80
2023-03-07T19:58:22.336Z,3.80
2023-03-07T20:00:48.936Z,3.60
2023-03-07T20:03:18.117Z,3.60
2023-03-07T20:05:48.177Z,3.60
2023-03-07T20:08:15.969Z,3.50
2023-03-07T20:10:42.948Z,3.50
2023-03-07T20:13:09.759Z,3.40
2023-03-07T20:15:36.426Z,3.30
2023-03-07T20:18:05.831Z,3.30
2023-03-07T20:20:35.225Z,3.10
2023-03-07T20:23:01.888Z,3.10
2023-03-07T20:25:29.995Z,3.10
2023-03-07T20:27:56.780Z,3.10
2023-03-07T20:30:23.684Z,3.10
2023-03-07T20:32:50.426Z,3.20
2023-03-07T20:35:17.222Z,3.20
2023-03-07T20:37:43.952Z,3.20
2023-03-07T20:40:11.279Z,3.20
2023-03-07T20:42:37.880Z,3.20
2023-03-07T20:45:05.013Z,3.10
2023-03-07T20:47:36.280Z,3.20
2023-03-07T20:50:03.662Z,3.20
2023-03-07T20:52:30.461Z,3.20
2023-03-07T20:54:57.136Z,3.20
2023-03-07T20:57:23.824Z,3.20
2023-03-07T20:59:50.512Z,3.20
2023-03-07T21:02:17.109Z,3.10
2023-03-07T21:04:43.806Z,3.10
2023-03-07T21:07:10.422Z,3.00
2023-03-07T21:09:37.157Z,2.80
2023-03-07T21:12:04.384Z,2.70
2023-03-07T21:14:31.028Z,2.60
2023-03-07T21:16:57.762Z,2.60
2023-03-07T21:19:24.346Z,2.60
2023-03-07T21:21:50.997Z,2.60
2023-03-07T21:24:17.691Z,2.70
2023-03-07T21:26:44.359Z,2.70
2023-03-07T21:29:11.032Z,2.70
2023-03-07T21:31:38.717Z,2.80
2023-03-07T21:34:08.267Z,2.70
2023-03-07T21:36:35.099Z,2.80
2023-03-07T21:39:04.080Z,2.80
2023-03-07T21:41:31.216Z,2.80
2023-03-07T21:43:58.103Z,2.80
2023-03-07T21:46:25.964Z,2.80
2023-03-07T21:48:52.944Z,2.70
2023-03-07T21:51:20.225Z,2.70
2023-03-07T21:53:46.870Z,2.70
2023-03-07T21:56:18.135Z,2.70
2023-03-07T21:58:48.383Z,2.70
2023-03-07T22:01:18.899Z,2.70
2023-03-07T22:03:46.519Z,2.70
2023-03-07T22:06:15.195Z,2.70
2023-03-07T22:08:42.234Z,2.70
2023-03-07T22:11:10.563Z,2.70
2023-03-07T22:13:40.114Z,2.70
2023-03-07T22:16:10.348Z,2.80
2023-03-07T22:18:37.226Z,2.80
2023-03-07T22:21:14.022Z,2.70
2023-03-07T22:23:41.375Z,2.70
2023-03-07T22:26:09.680Z,2.70
2023-03-07T22:28:36.410Z,2.70
2023-03-07T22:31:08.984Z,2.70
2023-03-07T22:33:35.896Z,2.70
2023-03-07T22:36:05.616Z,2.70
2023-03-07T22:38:32.163Z,2.70
2023-03-07T22:41:07.889Z,2.60
2023-03-07T22:43:35.810Z,2.60
2023-03-07T22:46:02.970Z,2.60
2023-03-07T22:48:30.349Z,2.60
2023-03-07T22:50:57.324Z,2.70
2023-03-07T22:53:27.051Z,2.70
2023-03-07T22:55:54.028Z,2.70
2023-03-07T22:58:20.636Z,2.70
2023-03-07T23:00:47.244Z,2.60
2023-03-07T23:03:13.949Z,2.60
2023-03-07T23:05:40.637Z,2.60
2023-03-07T23:08:07.310Z,2.60
2023-03-07T23:10:34.320Z,2.70
2023-03-07T23:13:00.985Z,2.60
2023-03-07T23:15:28.726Z,2.60
2023-03-07T23:17:55.757Z,2.60
2023-03-07T23:20:25.656Z,2.50
2023-03-07T23:22:53.293Z,2.50
2023-03-07T23:25:20.831Z,2.50
2023-03-07T23:27:47.869Z,2.50
2023-03-07T23:30:15.018Z,2.50
2023-03-07T23:32:41.706Z,2.50
2023-03-07T23:35:08.903Z,2.50
2023-03-07T23:37:35.509Z,2.50
2023-03-07T23:40:02.171Z,2.50
2023-03-07T23:42:28.931Z,2.40
2023-03-07T23:44:56.177Z,2.40
2023-03-07T23:47:22.810Z,2.40
2023-03-07T23:49:49.381Z,2.40
2023-03-07T23:52:16.083Z,2.30
2023-03-07T23:54:45.102Z,2.40
2023-03-07T23:57:11.818Z,2.30
2023-03-07T23:59:38.466Z,2.30
